sensor_id;sensor_type;location;lat;lon;timestamp;pressure;altitude;pressure_sealevel;temperature;humidity
29371;BME280;16357;52.188;7.838;2022-07-23T00:00:09;101143.25;;;19.23;54.37
29371;BME280;16357;52.188;7.838;2022-07-23T00:02:36;101140.13;;;19.26;54.47
29371;BME280;16357;52.188;7.838;2022-07-23T00:05:03;101144.31;;;19.28;54.48
29371;BME280;16357;52.188;7.838;2022-07-23T00:07:29;101150.19;;;19.32;54.16
29371;BME280;16357;52.188;7.838;2022-07-23T00:09:56;101156.50;;;19.33;54.34
29371;BME280;16357;52.188;7.838;2022-07-23T00:12:23;101159.00;;;19.34;54.61
29371;BME280;16357;52.188;7.838;2022-07-23T00:14:49;101164.44;;;19.34;54.23
29371;BME280;16357;52.188;7.838;2022-07-23T00:17:15;101162.53;;;19.35;54.48
29371;BME280;16357;52.188;7.838;2022-07-23T00:19:42;101157.94;;;19.35;54.63
29371;BME280;16357;52.188;7.838;2022-07-23T00:22:09;101162.53;;;19.35;54.79
29371;BME280;16357;52.188;7.838;2022-07-23T00:24:35;101162.53;;;19.35;54.98
29371;BME280;16357;52.188;7.838;2022-07-23T00:27:02;101154.38;;;19.35;55.22
29371;BME280;16357;52.188;7.838;2022-07-23T00:29:28;101149.78;;;19.35;55.87
29371;BME280;16357;52.188;7.838;2022-07-23T00:31:55;101153.34;;;19.36;55.85
29371;BME280;16357;52.188;7.838;2022-07-23T00:34:22;101149.56;;;19.37;55.56
29371;BME280;16357;52.188;7.838;2022-07-23T00:36:49;101159.41;;;19.38;56.03
29371;BME280;16357;52.188;7.838;2022-07-23T00:39:15;101165.50;;;19.40;56.25
29371;BME280;16357;52.188;7.838;2022-07-23T00:41:41;101167.19;;;19.41;56.54
29371;BME280;16357;52.188;7.838;2022-07-23T00:44:15;101160.50;;;19.43;56.16
29371;BME280;16357;52.188;7.838;2022-07-23T00:46:51;101173.06;;;19.44;55.71
29371;BME280;16357;52.188;7.838;2022-07-23T00:49:20;101167.78;;;19.43;56.00
29371;BME280;16357;52.188;7.838;2022-07-23T00:51:48;101168.66;;;19.43;56.14
29371;BME280;16357;52.188;7.838;2022-07-23T00:54:16;101176.81;;;19.43;55.94
29371;BME280;16357;52.188;7.838;2022-07-23T00:56:43;101162.34;;;19.43;56.18
29371;BME280;16357;52.188;7.838;2022-07-23T00:59:10;101157.97;;;19.42;56.51
29371;BME280;16357;52.188;7.838;2022-07-23T01:01:37;101158.81;;;19.42;57.01
29371;BME280;16357;52.188;7.838;2022-07-23T01:04:04;101155.25;;;19.42;57.11
29371;BME280;16357;52.188;7.838;2022-07-23T01:06:37;101159.63;;;19.43;56.51
29371;BME280;16357;52.188;7.838;2022-07-23T01:09:05;101164.47;;;19.41;56.58
29371;BME280;16357;52.188;7.838;2022-07-23T01:11:34;101160.88;;;19.40;56.29
29371;BME280;16357;52.188;7.838;2022-07-23T01:14:17;101164.47;;;19.41;56.14
29371;BME280;16357;52.188;7.838;2022-07-23T01:16:45;101155.84;;;19.37;56.72
29371;BME280;16357;52.188;7.838;2022-07-23T01:19:13;101148.75;;;19.36;57.63
29371;BME280;16357;52.188;7.838;2022-07-23T01:21:45;101139.09;;;19.34;57.21
29371;BME280;16357;52.188;7.838;2022-07-23T01:24:13;101130.53;;;19.30;57.93
29371;BME280;16357;52.188;7.838;2022-07-23T01:26:42;101134.50;;;19.27;57.42
29371;BME280;16357;52.188;7.838;2022-07-23T01:29:09;101132.16;;;19.24;57.79
29371;BME280;16357;52.188;7.838;2022-07-23T01:31:36;101130.69;;;19.22;57.80
29371;BME280;16357;52.188;7.838;2022-07-23T01:34:03;101125.66;;;19.19;57.75
29371;BME280;16357;52.188;7.838;2022-07-23T01:36:30;101120.44;;;19.17;57.99
29371;BME280;16357;52.188;7.838;2022-07-23T01:38:56;101106.19;;;19.15;57.49
29371;BME280;16357;52.188;7.838;2022-07-23T01:41:23;101100.75;;;19.15;57.60
29371;BME280;16357;52.188;7.838;2022-07-23T01:43:52;101102.19;;;19.11;57.46
29371;BME280;16357;52.188;7.838;2022-07-23T01:46:18;101104.69;;;19.06;57.58
29371;BME280;16357;52.188;7.838;2022-07-23T01:48:45;101097.16;;;19.01;57.95
29371;BME280;16357;52.188;7.838;2022-07-23T01:51:12;101102.16;;;18.98;57.65
29371;BME280;16357;52.188;7.838;2022-07-23T01:53:38;101098.38;;;18.92;58.24
29371;BME280;16357;52.188;7.838;2022-07-23T01:56:05;101103.38;;;18.89;57.83
29371;BME280;16357;52.188;7.838;2022-07-23T01:58:31;101099.19;;;18.86;58.51
29371;BME280;16357;52.188;7.838;2022-07-23T02:00:58;101095.00;;;18.83;58.44
29371;BME280;16357;52.188;7.838;2022-07-23T02:03:25;101103.16;;;18.83;58.46
29371;BME280;16357;52.188;7.838;2022-07-23T02:05:52;101102.31;;;18.83;58.71
29371;BME280;16357;52.188;7.838;2022-07-23T02:08:19;101104.16;;;18.82;58.75
29371;BME280;16357;52.188;7.838;2022-07-23T02:10:45;101106.88;;;18.82;58.60
29371;BME280;16357;52.188;7.838;2022-07-23T02:13:12;101111.31;;;18.83;58.31
29371;BME280;16357;52.188;7.838;2022-07-23T02:15:48;101113.19;;;18.83;58.44
29371;BME280;16357;52.188;7.838;2022-07-23T02:18:14;101108.78;;;18.82;58.44
29371;BME280;16357;52.188;7.838;2022-07-23T02:20:41;101106.28;;;18.80;58.64
29371;BME280;16357;52.188;7.838;2022-07-23T02:23:08;101102.91;;;18.78;58.93
29371;BME280;16357;52.188;7.838;2022-07-23T02:25:35;101110.41;;;18.76;58.71
29371;BME280;16357;52.188;7.838;2022-07-23T02:28:01;101109.31;;;18.71;58.80
29371;BME280;16357;52.188;7.838;2022-07-23T02:30:28;101102.59;;;18.67;58.93
29371;BME280;16357;52.188;7.838;2022-07-23T02:32:55;101111.16;;;18.63;59.02
29371;BME280;16357;52.188;7.838;2022-07-23T02:35:21;101104.44;;;18.59;59.49
29371;BME280;16357;52.188;7.838;2022-07-23T02:37:49;101111.13;;;18.57;59.58
29371;BME280;16357;52.188;7.838;2022-07-23T02:40:16;101111.53;;;18.54;59.42
29371;BME280;16357;52.188;7.838;2022-07-23T02:42:43;101104.81;;;18.50;59.74
29371;BME280;16357;52.188;7.838;2022-07-23T02:45:10;101108.56;;;18.49;59.95
29371;BME280;16357;52.188;7.838;2022-07-23T02:47:36;101098.06;;;18.46;60.07
29371;BME280;16357;52.188;7.838;2022-07-23T02:50:03;101100.19;;;18.43;60.23
29371;BME280;16357;52.188;7.838;2022-07-23T02:52:31;101113.94;;;18.42;60.16
29371;BME280;16357;52.188;7.838;2022-07-23T02:54:58;101115.00;;;18.41;60.23
29371;BME280;16357;52.188;7.838;2022-07-23T02:57:24;101111.63;;;18.39;60.56
29371;BME280;16357;52.188;7.838;2022-07-23T02:59:51;101109.97;;;18.38;60.85
29371;BME280;16357;52.188;7.838;2022-07-23T03:02:17;101112.69;;;18.38;60.98
29371;BME280;16357;52.188;7.838;2022-07-23T03:04:44;101118.94;;;18.38;60.95
29371;BME280;16357;52.188;7.838;2022-07-23T03:07:10;101113.53;;;18.38;61.10
29371;BME280;16357;52.188;7.838;2022-07-23T03:09:37;101118.72;;;18.40;60.85
29371;BME280;16357;52.188;7.838;2022-07-23T03:12:03;101118.72;;;18.40;61.32
29371;BME280;16357;52.188;7.838;2022-07-23T03:14:35;101122.94;;;18.42;60.83
29371;BME280;16357;52.188;7.838;2022-07-23T03:17:01;101111.88;;;18.44;60.93
29371;BME280;16357;52.188;7.838;2022-07-23T03:19:28;101120.88;;;18.45;60.83
29371;BME280;16357;52.188;7.838;2022-07-23T03:21:54;101120.88;;;18.45;60.90
29371;BME280;16357;52.188;7.838;2022-07-23T03:24:21;101121.69;;;18.45;61.13
29371;BME280;16357;52.188;7.838;2022-07-23T03:26:49;101112.53;;;18.46;60.87
29371;BME280;16357;52.188;7.838;2022-07-23T03:29:16;101111.47;;;18.47;60.72
29371;BME280;16357;52.188;7.838;2022-07-23T03:31:43;101115.84;;;18.48;60.94
29371;BME280;16357;52.188;7.838;2022-07-23T03:34:10;101114.00;;;18.49;60.80
29371;BME280;16357;52.188;7.838;2022-07-23T03:36:36;101117.56;;;18.49;60.77
29371;BME280;16357;52.188;7.838;2022-07-23T03:39:04;101108.56;;;18.49;60.84
29371;BME280;16357;52.188;7.838;2022-07-23T03:41:31;101121.09;;;18.50;61.16
29371;BME280;16357;52.188;7.838;2022-07-23T03:43:57;101106.88;;;18.48;60.92
29371;BME280;16357;52.188;7.838;2022-07-23T03:46:24;101112.31;;;18.48;61.26
29371;BME280;16357;52.188;7.838;2022-07-23T03:48:50;101116.91;;;18.47;61.28
29371;BME280;16357;52.188;7.838;2022-07-23T03:51:23;101116.06;;;18.47;60.90
29371;BME280;16357;52.188;7.838;2022-07-23T03:53:50;101114.59;;;18.44;61.07
29371;BME280;16357;52.188;7.838;2022-07-23T03:56:16;101113.75;;;18.43;61.22
29371;BME280;16357;52.188;7.838;2022-07-23T03:58:43;101116.88;;;18.40;61.09
29371;BME280;16357;52.188;7.838;2022-07-23T04:01:10;101122.50;;;18.39;61.31
29371;BME280;16357;52.188;7.838;2022-07-23T04:03:37;101117.25;;;18.37;61.71
29371;BME280;16357;52.188;7.838;2022-07-23T04:06:04;101112.22;;;18.34;61.67
29371;BME280;16357;52.188;7.838;2022-07-23T04:08:30;101106.16;;;18.32;61.75
29371;BME280;16357;52.188;7.838;2022-07-23T04:10:57;101110.09;;;18.30;61.99
29371;BME280;16357;52.188;7.838;2022-07-23T04:13:23;101109.47;;;18.28;61.95
29371;BME280;16357;52.188;7.838;2022-07-23T04:15:50;101117.81;;;18.26;61.94
29371;BME280;16357;52.188;7.838;2022-07-23T04:18:17;101118.66;;;18.27;62.19
29371;BME280;16357;52.188;7.838;2022-07-23T04:20:44;101113.44;;;18.25;62.13
29371;BME280;16357;52.188;7.838;2022-07-23T04:23:11;101115.31;;;18.25;62.05
29371;BME280;16357;52.188;7.838;2022-07-23T04:25:38;101112.78;;;18.23;62.27
29371;BME280;16357;52.188;7.838;2022-07-23T04:28:05;101112.78;;;18.23;62.26
29371;BME280;16357;52.188;7.838;2022-07-23T04:30:31;101117.56;;;18.21;62.02
29371;BME280;16357;52.188;7.838;2022-07-23T04:32:58;101111.69;;;18.17;62.44
29371;BME280;16357;52.188;7.838;2022-07-23T04:35:25;101110.41;;;18.13;62.46
29371;BME280;16357;52.188;7.838;2022-07-23T04:37:51;101116.03;;;18.12;62.69
29371;BME280;16357;52.188;7.838;2022-07-23T04:40:18;101114.56;;;18.09;62.63
29371;BME280;16357;52.188;7.838;2022-07-23T04:42:45;101115.56;;;18.08;63.28
29371;BME280;16357;52.188;7.838;2022-07-23T04:45:11;101124.56;;;18.09;62.86
29371;BME280;16357;52.188;7.838;2022-07-23T04:47:39;101116.63;;;18.07;63.05
29371;BME280;16357;52.188;7.838;2022-07-23T04:50:05;101127.28;;;18.09;63.17
29371;BME280;16357;52.188;7.838;2022-07-23T04:52:32;101126.25;;;18.10;62.68
29371;BME280;16357;52.188;7.838;2022-07-23T04:54:59;101122.50;;;18.11;63.00
29371;BME280;16357;52.188;7.838;2022-07-23T04:57:25;101124.19;;;18.12;62.64
29371;BME280;16357;52.188;7.838;2022-07-23T04:59:52;101119.38;;;18.14;63.05
29371;BME280;16357;52.188;7.838;2022-07-23T05:02:18;101119.19;;;18.15;62.83
29371;BME280;16357;52.188;7.838;2022-07-23T05:04:45;101117.97;;;18.18;62.80
29371;BME280;16357;52.188;7.838;2022-07-23T05:07:11;101128.44;;;18.21;62.59
29371;BME280;16357;52.188;7.838;2022-07-23T05:09:38;101131.78;;;18.23;62.71
29371;BME280;16357;52.188;7.838;2022-07-23T05:12:04;101133.28;;;18.26;62.94
29371;BME280;16357;52.188;7.838;2022-07-23T05:14:31;101127.44;;;18.29;63.07
29371;BME280;16357;52.188;7.838;2022-07-23T05:16:58;101138.97;;;18.31;62.74
29371;BME280;16357;52.188;7.838;2022-07-23T05:19:24;101143.16;;;18.33;62.67
29371;BME280;16357;52.188;7.838;2022-07-23T05:21:51;101145.28;;;18.38;62.71
29371;BME280;16357;52.188;7.838;2022-07-23T05:24:17;101145.91;;;18.40;63.03
29371;BME280;16357;52.188;7.838;2022-07-23T05:26:44;101143.66;;;18.43;63.07
29371;BME280;16357;52.188;7.838;2022-07-23T05:29:11;101148.69;;;18.47;62.57
29371;BME280;16357;52.188;7.838;2022-07-23T05:31:38;101146.41;;;18.50;63.09
29371;BME280;16357;52.188;7.838;2022-07-23T05:34:04;101153.13;;;18.54;62.86
29371;BME280;16357;52.188;7.838;2022-07-23T05:36:32;101141.84;;;18.57;63.01
29371;BME280;16357;52.188;7.838;2022-07-23T05:38:58;101142.09;;;18.62;62.87
29371;BME280;16357;52.188;7.838;2022-07-23T05:41:26;101143.16;;;18.68;62.76
29371;BME280;16357;52.188;7.838;2022-07-23T05:43:52;101141.75;;;18.72;62.58
29371;BME280;16357;52.188;7.838;2022-07-23T05:46:19;101147.44;;;18.77;62.48
29371;BME280;16357;52.188;7.838;2022-07-23T05:48:46;101162.31;;;18.81;62.46
29371;BME280;16357;52.188;7.838;2022-07-23T05:51:20;101163.38;;;18.87;62.02
29371;BME280;16357;52.188;7.838;2022-07-23T05:53:47;101160.06;;;18.92;61.83
29371;BME280;16357;52.188;7.838;2022-07-23T05:56:15;101169.50;;;18.96;61.60
29371;BME280;16357;52.188;7.838;2022-07-23T05:58:41;101174.97;;;19.02;61.85
29371;BME280;16357;52.188;7.838;2022-07-23T06:01:08;101182.53;;;19.07;61.80
29371;BME280;16357;52.188;7.838;2022-07-23T06:03:35;101173.78;;;19.12;61.71
29371;BME280;16357;52.188;7.838;2022-07-23T06:06:01;101179.22;;;19.18;61.73
29371;BME280;16357;52.188;7.838;2022-07-23T06:08:28;101175.06;;;19.22;61.00
29371;BME280;16357;52.188;7.838;2022-07-23T06:10:54;101183.25;;;19.29;60.69
29371;BME280;16357;52.188;7.838;2022-07-23T06:13:21;101175.53;;;19.33;60.59
29371;BME280;16357;52.188;7.838;2022-07-23T06:15:47;101173.00;;;19.38;60.83
29371;BME280;16357;52.188;7.838;2022-07-23T06:18:14;101185.19;;;19.42;60.09
29371;BME280;16357;52.188;7.838;2022-07-23T06:20:41;101181.84;;;19.46;60.31
29371;BME280;16357;52.188;7.838;2022-07-23T06:23:07;101182.28;;;19.50;60.05
29371;BME280;16357;52.188;7.838;2022-07-23T06:25:34;101175.41;;;19.54;59.95
29371;BME280;16357;52.188;7.838;2022-07-23T06:28:00;101178.72;;;19.56;59.91
29371;BME280;16357;52.188;7.838;2022-07-23T06:30:27;101178.94;;;19.61;59.80
29371;BME280;16357;52.188;7.838;2022-07-23T06:32:53;101182.13;;;19.65;59.90
29371;BME280;16357;52.188;7.838;2022-07-23T06:35:20;101191.16;;;19.72;59.68
29371;BME280;16357;52.188;7.838;2022-07-23T06:37:46;101191.38;;;19.77;59.90
29371;BME280;16357;52.188;7.838;2022-07-23T06:40:14;101197.91;;;19.83;59.43
29371;BME280;16357;52.188;7.838;2022-07-23T06:42:40;101202.09;;;19.92;59.51
29371;BME280;16357;52.188;7.838;2022-07-23T06:45:07;101196.88;;;19.97;59.50
29371;BME280;16357;52.188;7.838;2022-07-23T06:47:34;101203.78;;;20.06;58.82
29371;BME280;16357;52.188;7.838;2022-07-23T06:50:00;101197.09;;;20.15;58.64
29371;BME280;16357;52.188;7.838;2022-07-23T06:52:27;101199.19;;;20.27;58.61
29371;BME280;16357;52.188;7.838;2022-07-23T06:54:53;101211.97;;;20.39;58.81
29371;BME280;16357;52.188;7.838;2022-07-23T06:57:20;101208.41;;;20.52;58.39
29371;BME280;16357;52.188;7.838;2022-07-23T06:59:46;101201.50;;;20.63;58.22
29371;BME280;16357;52.188;7.838;2022-07-23T07:02:20;101206.94;;;20.76;58.03
29371;BME280;16357;52.188;7.838;2022-07-23T07:04:47;101208.41;;;20.86;57.86
29371;BME280;16357;52.188;7.838;2022-07-23T07:07:13;101214.28;;;20.96;57.67
29371;BME280;16357;52.188;7.838;2022-07-23T07:09:40;101205.00;;;21.03;56.42
29371;BME280;16357;52.188;7.838;2022-07-23T07:12:07;101210.25;;;21.12;55.95
29371;BME280;16357;52.188;7.838;2022-07-23T07:14:33;101202.84;;;21.19;55.69
29371;BME280;16357;52.188;7.838;2022-07-23T07:17:00;101203.88;;;21.24;55.82
29371;BME280;16357;52.188;7.838;2022-07-23T07:19:26;101205.53;;;21.32;55.46
29371;BME280;16357;52.188;7.838;2022-07-23T07:21:53;101213.91;;;21.37;54.89
29371;BME280;16357;52.188;7.838;2022-07-23T07:24:19;101213.28;;;21.42;54.17
29371;BME280;16357;52.188;7.838;2022-07-23T07:26:46;101209.28;;;21.44;54.12
29371;BME280;16357;52.188;7.838;2022-07-23T07:29:12;101212.84;;;21.45;54.18
29371;BME280;16357;52.188;7.838;2022-07-23T07:31:39;101220.22;;;21.44;54.09
29371;BME280;16357;52.188;7.838;2022-07-23T07:34:05;101221.03;;;21.45;54.75
29371;BME280;16357;52.188;7.838;2022-07-23T07:36:33;101226.69;;;21.50;54.46
29371;BME280;16357;52.188;7.838;2022-07-23T07:38:59;101216.78;;;21.56;54.07
29371;BME280;16357;52.188;7.838;2022-07-23T07:41:26;101213.59;;;21.65;54.07
29371;BME280;16357;52.188;7.838;2022-07-23T07:43:53;101213.13;;;21.75;53.89
29371;BME280;16357;52.188;7.838;2022-07-23T07:46:19;101208.88;;;21.86;53.17
29371;BME280;16357;52.188;7.838;2022-07-23T07:48:46;101213.41;;;21.99;52.62
29371;BME280;16357;52.188;7.838;2022-07-23T07:51:12;101219.44;;;22.07;51.67
29371;BME280;16357;52.188;7.838;2022-07-23T07:53:39;101218.34;;;22.15;51.59
29371;BME280;16357;52.188;7.838;2022-07-23T07:56:05;101211.78;;;22.23;51.24
29371;BME280;16357;52.188;7.838;2022-07-23T07:58:33;101218.03;;;22.30;51.22
29371;BME280;16357;52.188;7.838;2022-07-23T08:01:00;101229.53;;;22.39;50.19
29371;BME280;16357;52.188;7.838;2022-07-23T08:03:27;101217.91;;;22.43;50.28
29371;BME280;16357;52.188;7.838;2022-07-23T08:05:54;101226.06;;;22.50;49.47
29371;BME280;16357;52.188;7.838;2022-07-23T08:08:20;101217.22;;;22.54;48.88
29371;BME280;16357;52.188;7.838;2022-07-23T08:10:46;101224.72;;;22.59;48.60
29371;BME280;16357;52.188;7.838;2022-07-23T08:13:14;101215.84;;;22.64;48.34
29371;BME280;16357;52.188;7.838;2022-07-23T08:15:42;101229.31;;;22.65;47.66
29371;BME280;16357;52.188;7.838;2022-07-23T08:18:09;101229.31;;;22.65;48.04
29371;BME280;16357;52.188;7.838;2022-07-23T08:20:36;101230.34;;;22.64;47.94
29371;BME280;16357;52.188;7.838;2022-07-23T08:23:05;101237.50;;;22.65;48.05
29371;BME280;16357;52.188;7.838;2022-07-23T08:25:34;101236.22;;;22.68;47.37
29371;BME280;16357;52.188;7.838;2022-07-23T08:28:02;101236.59;;;22.71;47.30
29371;BME280;16357;52.188;7.838;2022-07-23T08:30:30;101230.47;;;22.76;46.95
29371;BME280;16357;52.188;7.838;2022-07-23T08:33:05;101236.72;;;22.83;47.61
29371;BME280;16357;52.188;7.838;2022-07-23T08:35:58;101234.88;;;22.95;47.61
29371;BME280;16357;52.188;7.838;2022-07-23T08:38:24;101231.22;;;23.08;47.77
29371;BME280;16357;52.188;7.838;2022-07-23T08:40:53;101239.28;;;23.21;46.60
29371;BME280;16357;52.188;7.838;2022-07-23T08:43:24;101248.41;;;23.34;46.25
29371;BME280;16357;52.188;7.838;2022-07-23T08:45:53;101240.97;;;23.41;46.09
29371;BME280;16357;52.188;7.838;2022-07-23T08:48:25;101243.84;;;23.46;45.70
29371;BME280;16357;52.188;7.838;2022-07-23T08:50:54;101245.50;;;23.47;45.47
29371;BME280;16357;52.188;7.838;2022-07-23T08:53:24;101248.25;;;23.47;44.99
29371;BME280;16357;52.188;7.838;2022-07-23T08:55:55;101250.84;;;23.42;44.45
29371;BME280;16357;52.188;7.838;2022-07-23T08:58:22;101245.44;;;23.35;44.64
29371;BME280;16357;52.188;7.838;2022-07-23T09:00:53;101240.88;;;23.29;44.50
29371;BME280;16357;52.188;7.838;2022-07-23T09:03:22;101242.63;;;23.23;44.57
29371;BME280;16357;52.188;7.838;2022-07-23T09:05:52;101234.63;;;23.22;45.79
29371;BME280;16357;52.188;7.838;2022-07-23T09:08:21;101242.63;;;23.23;45.45
29371;BME280;16357;52.188;7.838;2022-07-23T09:10:59;101246.97;;;23.31;46.06
29371;BME280;16357;52.188;7.838;2022-07-23T09:13:37;101251.28;;;23.39;45.64
29371;BME280;16357;52.188;7.838;2022-07-23T09:16:05;101245.34;;;23.42;44.48
29371;BME280;16357;52.188;7.838;2022-07-23T09:21:11;101236.06;;;23.43;44.10
29371;BME280;16357;52.188;7.838;2022-07-23T09:23:41;101237.34;;;23.40;44.42
29371;BME280;16357;52.188;7.838;2022-07-23T09:26:22;101245.13;;;23.43;44.57
29371;BME280;16357;52.188;7.838;2022-07-23T09:28:52;101239.81;;;23.49;44.26
29371;BME280;16357;52.188;7.838;2022-07-23T09:31:20;101241.38;;;23.56;44.28
29371;BME280;16357;52.188;7.838;2022-07-23T09:33:47;101255.38;;;23.66;43.57
29371;BME280;16357;52.188;7.838;2022-07-23T09:36:14;101254.03;;;23.76;43.04
29371;BME280;16357;52.188;7.838;2022-07-23T09:38:49;101252.03;;;23.83;42.65
29371;BME280;16357;52.188;7.838;2022-07-23T09:41:16;101247.38;;;23.83;43.39
29371;BME280;16357;52.188;7.838;2022-07-23T09:43:43;101252.88;;;23.83;42.38
29371;BME280;16357;52.188;7.838;2022-07-23T09:46:24;101247.13;;;23.85;43.13
29371;BME280;16357;52.188;7.838;2022-07-23T09:48:55;101244.41;;;23.85;42.94
29371;BME280;16357;52.188;7.838;2022-07-23T09:51:24;101236.19;;;23.85;43.17
29371;BME280;16357;52.188;7.838;2022-07-23T09:54:03;101251.94;;;23.90;43.29
29371;BME280;16357;52.188;7.838;2022-07-23T09:56:31;101246.81;;;23.93;42.71
29371;BME280;16357;52.188;7.838;2022-07-23T09:58:59;101254.13;;;23.99;42.45
29371;BME280;16357;52.188;7.838;2022-07-23T10:01:39;101245.56;;;24.07;41.65
29371;BME280;16357;52.188;7.838;2022-07-23T10:04:07;101241.66;;;24.15;42.23
29371;BME280;16357;52.188;7.838;2022-07-23T10:06:34;101239.25;;;24.19;41.99
29371;BME280;16357;52.188;7.838;2022-07-23T10:09:01;101240.69;;;24.21;41.26
29371;BME280;16357;52.188;7.838;2022-07-23T10:11:28;101245.72;;;24.24;41.97
29371;BME280;16357;52.188;7.838;2022-07-23T10:13:57;101244.19;;;24.28;41.28
29371;BME280;16357;52.188;7.838;2022-07-23T10:16:27;101236.31;;;24.32;41.33
29371;BME280;16357;52.188;7.838;2022-07-23T10:18:53;101246.34;;;24.38;41.30
29371;BME280;16357;52.188;7.838;2022-07-23T10:21:41;101236.13;;;24.45;41.48
29371;BME280;16357;52.188;7.838;2022-07-23T10:24:30;101238.78;;;24.52;41.72
29371;BME280;16357;52.188;7.838;2022-07-23T10:30:57;101227.44;;;24.60;40.37
29371;BME280;16357;52.188;7.838;2022-07-23T10:36:40;101242.94;;;24.66;40.90
29371;BME280;16357;52.188;7.838;2022-07-23T10:39:16;101233.41;;;24.69;40.63
29371;BME280;16357;52.188;7.838;2022-07-23T10:41:44;101230.44;;;24.70;39.94
29371;BME280;16357;52.188;7.838;2022-07-23T10:44:17;101234.13;;;24.76;40.85
29371;BME280;16357;52.188;7.838;2022-07-23T10:47:03;101241.16;;;24.84;41.10
29371;BME280;16357;52.188;7.838;2022-07-23T10:49:34;101232.44;;;24.87;39.42
29371;BME280;16357;52.188;7.838;2022-07-23T10:54:55;101221.44;;;24.98;40.20
29371;BME280;16357;52.188;7.838;2022-07-23T10:57:25;101232.19;;;25.00;39.81
29371;BME280;16357;52.188;7.838;2022-07-23T11:02:44;101231.22;;;25.06;39.84
29371;BME280;16357;52.188;7.838;2022-07-23T11:05:14;101227.16;;;25.09;40.10
29371;BME280;16357;52.188;7.838;2022-07-23T11:11:08;101225.75;;;25.18;39.61
29371;BME280;16357;52.188;7.838;2022-07-23T11:13:30;101228.63;;;25.23;38.61
29371;BME280;16357;52.188;7.838;2022-07-23T11:16:13;101225.97;;;25.28;39.10
29371;BME280;16357;52.188;7.838;2022-07-23T11:24:09;101225.34;;;25.38;40.47
29371;BME280;16357;52.188;7.838;2022-07-23T11:26:57;101232.13;;;25.47;39.67
29371;BME280;16357;52.188;7.838;2022-07-23T11:32:05;101220.03;;;25.60;39.27
29371;BME280;16357;52.188;7.838;2022-07-23T11:34:32;101220.63;;;25.62;39.02
29371;BME280;16357;52.188;7.838;2022-07-23T11:37:00;101228.38;;;25.65;38.99
29371;BME280;16357;52.188;7.838;2022-07-23T11:39:28;101222.13;;;25.70;38.77
29371;BME280;16357;52.188;7.838;2022-07-23T11:41:56;101230.22;;;25.76;38.71
29371;BME280;16357;52.188;7.838;2022-07-23T11:47:08;101229.72;;;25.91;37.90
29371;BME280;16357;52.188;7.838;2022-07-23T11:49:36;101227.53;;;25.93;37.33
29371;BME280;16357;52.188;7.838;2022-07-23T11:54:31;101228.72;;;25.97;37.51
29371;BME280;16357;52.188;7.838;2022-07-23T11:57:05;101229.56;;;25.98;37.99
29371;BME280;16357;52.188;7.838;2022-07-23T11:59:32;101230.16;;;26.00;38.35
29371;BME280;16357;52.188;7.838;2022-07-23T12:02:04;101235.16;;;26.03;38.80
29371;BME280;16357;52.188;7.838;2022-07-23T12:04:37;101230.34;;;26.10;38.49
29371;BME280;16357;52.188;7.838;2022-07-23T12:07:43;101221.91;;;26.17;38.36
29371;BME280;16357;52.188;7.838;2022-07-23T12:10:26;101217.69;;;26.26;37.46
29371;BME280;16357;52.188;7.838;2022-07-23T12:12:55;101219.09;;;26.28;36.30
29371;BME280;16357;52.188;7.838;2022-07-23T12:15:28;101216.06;;;26.30;37.04
29371;BME280;16357;52.188;7.838;2022-07-23T12:17:59;101220.16;;;26.27;36.11
29371;BME280;16357;52.188;7.838;2022-07-23T12:20:28;101226.16;;;26.24;36.46
29371;BME280;16357;52.188;7.838;2022-07-23T12:22:58;101214.00;;;26.20;36.50
29371;BME280;16357;52.188;7.838;2022-07-23T12:25:28;101213.41;;;26.18;36.45
29371;BME280;16357;52.188;7.838;2022-07-23T12:28:01;101235.66;;;26.17;36.95
29371;BME280;16357;52.188;7.838;2022-07-23T12:30:32;101221.09;;;26.16;37.00
29371;BME280;16357;52.188;7.838;2022-07-23T12:33:00;101226.59;;;26.16;36.25
29371;BME280;16357;52.188;7.838;2022-07-23T12:35:46;101226.94;;;26.20;36.74
29371;BME280;16357;52.188;7.838;2022-07-23T12:38:16;101231.59;;;26.19;36.26
29371;BME280;16357;52.188;7.838;2022-07-23T12:43:19;101224.50;;;26.23;36.40
29371;BME280;16357;52.188;7.838;2022-07-23T12:48:19;101213.59;;;26.28;36.47
29371;BME280;16357;52.188;7.838;2022-07-23T12:50:58;101214.84;;;26.38;36.99
29371;BME280;16357;52.188;7.838;2022-07-23T12:56:04;101225.09;;;26.59;36.33
29371;BME280;16357;52.188;7.838;2022-07-23T12:58:42;101210.44;;;26.70;36.50
29371;BME280;16357;52.188;7.838;2022-07-23T13:04:13;101231.91;;;26.90;36.33
29371;BME280;16357;52.188;7.838;2022-07-23T13:06:52;101222.06;;;26.95;35.67
29371;BME280;16357;52.188;7.838;2022-07-23T13:09:27;101225.66;;;26.95;34.89
29371;BME280;16357;52.188;7.838;2022-07-23T13:11:59;101238.59;;;26.95;34.43
29371;BME280;16357;52.188;7.838;2022-07-23T13:14:27;101225.06;;;26.93;34.63
29371;BME280;16357;52.188;7.838;2022-07-23T13:16:54;101217.91;;;26.92;34.63
29371;BME280;16357;52.188;7.838;2022-07-23T13:19:23;101228.09;;;26.91;35.19
29371;BME280;16357;52.188;7.838;2022-07-23T13:21:51;101227.81;;;26.93;35.01
29371;BME280;16357;52.188;7.838;2022-07-23T13:24:21;101228.41;;;26.95;34.79
29371;BME280;16357;52.188;7.838;2022-07-23T13:26:47;101235.06;;;26.99;34.80
29371;BME280;16357;52.188;7.838;2022-07-23T13:29:17;101232.41;;;27.04;34.86
29371;BME280;16357;52.188;7.838;2022-07-23T13:31:46;101229.72;;;27.09;35.26
29371;BME280;16357;52.188;7.838;2022-07-23T13:34:14;101227.84;;;27.15;34.72
29371;BME280;16357;52.188;7.838;2022-07-23T13:36:41;101240.38;;;27.23;34.86
29371;BME280;16357;52.188;7.838;2022-07-23T13:39:09;101233.84;;;27.29;34.62